Time;durP1;ratioP1;P1;durP2;ratioP2;P2;SDS_P1;SDS_P2;PMS_P1;PMS_P2;Temp;Humidity;BMP_temperature;BMP_pressure;BME280_temperature;BME280_humidity;BME280_pressure;Samples;Min_cycle;Max_cycle;Signal;HPM_P1;HPM_P2
2023/06/19 00:00:53;;;;;;;6.90;2.40;;;14.20;99.90;;;;;;5071725;28;20231;-67
2023/06/19 00:03:20;;;;;;;5.90;2.20;;;13.90;99.90;;;;;;5072258;28;20514;-68
2023/06/19 00:05:47;;;;;;;6.63;2.50;;;13.90;99.90;;;;;;5071931;28;20186;-68
2023/06/19 00:08:15;;;;;;;10.30;2.53;;;14.90;99.90;;;;;;5071202;28;20186;-69
2023/06/19 00:10:42;;;;;;;6.83;2.60;;;15.30;99.90;;;;;;5072115;28;20191;-69
2023/06/19 00:13:09;;;;;;;7.80;2.67;;;15.30;99.90;;;;;;5071911;28;20176;-68
2023/06/19 00:15:37;;;;;;;7.67;3.13;;;15.00;99.90;;;;;;5071946;28;20179;-69
2023/06/19 00:18:06;;;;;;;7.80;3.57;;;15.40;99.90;;;;;;5071330;28;20638;-68
2023/06/19 00:20:36;;;;;;;7.97;3.20;;;16.10;99.90;;;;;;5052486;28;20595;-69
2023/06/19 00:23:03;;;;;;;7.97;4.07;;;16.60;99.90;;;;;;5071955;28;20626;-68
2023/06/19 00:25:31;;;;;;;10.27;4.30;;;16.20;99.90;;;;;;5071443;28;20600;-69
2023/06/19 00:27:58;;;;;;;11.60;5.03;;;15.70;99.90;;;;;;5071420;28;20192;-68
2023/06/19 00:30:25;;;;;;;12.13;4.93;;;15.80;99.90;;;;;;5051278;28;20224;-67
2023/06/19 00:32:53;;;;;;;14.63;6.10;;;15.50;99.90;;;;;;5060450;28;20184;-67
2023/06/19 00:35:21;;;;;;;11.70;5.47;;;15.10;99.90;;;;;;5071656;28;20172;-68
2023/06/19 00:37:49;;;;;;;19.77;4.77;;;15.40;99.90;;;;;;5071325;28;20182;-66
2023/06/19 00:40:31;;;;;;;12.13;4.70;;;16.10;99.90;;;;;;5070929;28;20194;-68
2023/06/19 00:42:58;;;;;;;12.70;4.27;;;16.10;99.90;;;;;;5071413;28;20187;-68
2023/06/19 00:45:26;;;;;;;11.63;3.63;;;16.30;99.60;;;;;;5071191;28;20184;-69
2023/06/19 00:51:16;;;;;;;7.47;3.10;;;17.40;96.20;;;;;;5070771;28;20681;-67
2023/06/19 00:53:43;;;;;;;8.80;3.90;;;17.40;96.70;;;;;;5070653;28;20180;-68
2023/06/19 00:56:11;;;;;;;11.00;3.47;;;17.40;97.20;;;;;;5070403;28;20655;-68
2023/06/19 00:58:38;;;;;;;14.53;4.23;;;17.40;95.60;;;;;;5071028;28;20627;-69
2023/06/19 01:01:06;;;;;;;4.87;2.40;;;18.00;96.90;;;;;;5062513;28;20264;-68
2023/06/19 01:03:33;;;;;;;2.77;1.23;;;18.80;90.80;;;;;;5071311;28;20186;-69
2023/06/19 01:06:04;;;;;;;6.13;1.63;;;18.90;74.30;;;;;;5071336;28;20184;-68
2023/06/19 01:08:46;;;;;;;3.37;1.20;;;18.70;66.60;;;;;;5070818;28;20190;-69
2023/06/19 01:11:18;;;;;;;2.30;1.13;;;19.40;59.40;;;;;;5071163;28;20216;-69
2023/06/19 01:14:10;;;;;;;5.17;1.47;;;19.30;51.50;;;;;;5071333;28;20175;-69
2023/06/19 01:16:38;;;;;;;5.33;0.90;;;19.60;45.40;;;;;;5057745;28;20198;-68
2023/06/19 01:19:10;;;;;;;1.80;0.70;;;19.30;43.10;;;;;;5071216;28;20223;-69
2023/06/19 01:24:59;;;;;;;3.00;1.00;;;19.30;39.80;;;;;;5050580;28;20242;-68
2023/06/19 01:27:31;;;;;;;3.63;0.90;;;19.70;36.50;;;;;;5068828;28;20192;-68
2023/06/19 01:30:00;;;;;;;5.57;1.10;;;19.30;34.10;;;;;;5070353;28;20208;-68
2023/06/19 01:32:38;;;;;;;11.67;1.73;;;19.10;36.00;;;;;;5075175;28;20191;-69
2023/06/19 01:35:09;;;;;;;7.60;1.27;;;19.80;37.10;;;;;;5075190;28;20171;-69
2023/06/19 01:37:40;;;;;;;5.37;1.30;;;19.30;32.80;;;;;;5074310;28;20191;-67
2023/06/19 01:40:10;;;;;;;3.83;1.10;;;18.80;34.70;;;;;;5074942;28;20184;-71
2023/06/19 01:42:41;;;;;;;8.03;1.43;;;19.10;37.80;;;;;;5075191;28;20176;-69
2023/06/19 01:45:09;;;;;;;3.20;0.90;;;19.60;32.00;;;;;;5074543;28;20179;-70
2023/06/19 01:47:37;;;;;;;3.57;1.00;;;19.40;30.20;;;;;;5074707;28;20191;-68
2023/06/19 01:50:05;;;;;;;5.23;1.00;;;19.20;30.60;;;;;;5074720;28;20684;-70
2023/06/19 01:52:33;;;;;;;4.20;1.23;;;19.30;32.70;;;;;;5074487;28;20168;-70
2023/06/19 01:55:00;;;;;;;3.33;0.97;;;19.50;29.20;;;;;;5074663;28;20189;-70
2023/06/19 01:57:28;;;;;;;2.90;0.97;;;19.60;31.70;;;;;;5056747;28;20222;-69
2023/06/19 01:59:55;;;;;;;2.53;0.90;;;19.50;29.40;;;;;;5074337;28;20175;-68
2023/06/19 02:02:22;;;;;;;4.27;1.07;;;19.50;28.80;;;;;;5074272;28;20184;-68
2023/06/19 02:04:50;;;;;;;3.90;0.97;;;19.80;30.50;;;;;;5074558;28;20183;-68
2023/06/19 02:07:17;;;;;;;5.53;0.90;;;20.00;29.50;;;;;;5074069;28;20178;-69
2023/06/19 02:09:44;;;;;;;3.23;1.10;;;20.00;29.10;;;;;;5074429;28;20210;-69
2023/06/19 02:12:12;;;;;;;4.33;1.00;;;20.10;28.20;;;;;;5074413;28;20255;-70
2023/06/19 02:14:39;;;;;;;2.63;1.10;;;19.90;27.10;;;;;;5056292;28;20672;-69
2023/06/19 02:17:07;;;;;;;4.07;1.43;;;20.20;26.30;;;;;;5074241;28;20297;-69
2023/06/19 02:19:34;;;;;;;3.77;1.10;;;19.80;27.60;;;;;;5073962;28;20238;-70
2023/06/19 02:22:01;;;;;;;3.63;1.30;;;19.70;27.50;;;;;;5073680;28;20547;-67
2023/06/19 02:24:29;;;;;;;4.10;1.13;;;19.80;28.90;;;;;;5074238;28;20179;-68
2023/06/19 02:26:57;;;;;;;6.47;1.20;;;20.20;26.70;;;;;;5074133;28;20298;-67
2023/06/19 02:29:25;;;;;;;1.87;0.90;;;20.00;26.20;;;;;;5073318;28;20208;-69
2023/06/19 02:31:52;;;;;;;3.53;1.00;;;19.90;27.30;;;;;;5074028;28;20180;-70
2023/06/19 02:34:19;;;;;;;2.63;0.90;;;19.50;26.60;;;;;;5056232;28;20245;-68
2023/06/19 02:36:47;;;;;;;3.03;0.90;;;19.30;25.70;;;;;;5073269;28;20172;-68
2023/06/19 02:39:14;;;;;;;1.27;0.90;;;19.60;27.10;;;;;;5073952;28;20195;-70
2023/06/19 02:41:46;;;;;;;3.23;1.00;;;20.20;26.00;;;;;;5055157;28;20188;-68
2023/06/19 02:44:14;;;;;;;6.10;1.23;;;20.30;24.80;;;;;;5073204;28;20705;-69
2023/06/19 02:46:41;;;;;;;3.20;1.27;;;19.70;26.20;;;;;;5055735;28;20202;-67
2023/06/19 02:49:09;;;;;;;4.60;1.10;;;20.20;26.50;;;;;;5054748;28;20218;-68
2023/06/19 02:51:36;;;;;;;2.10;1.07;;;20.30;25.20;;;;;;5055386;28;20581;-67
2023/06/19 02:54:04;;;;;;;2.70;1.13;;;19.60;27.40;;;;;;5073866;28;20230;-67
2023/06/19 02:56:31;;;;;;;3.53;1.13;;;19.10;26.40;;;;;;5073830;28;20180;-70
2023/06/19 02:58:58;;;;;;;2.73;1.30;;;19.30;27.20;;;;;;5073252;28;20260;-69
2023/06/19 03:01:27;;;;;;;1.50;0.93;;;19.60;27.20;;;;;;5053591;28;20173;-67
2023/06/19 03:03:54;;;;;;;2.30;0.90;;;19.70;26.10;;;;;;5059348;28;20273;-68
2023/06/19 03:06:22;;;;;;;3.53;1.07;;;19.70;26.10;;;;;;5072885;28;20314;-69
2023/06/19 03:08:49;;;;;;;2.17;1.13;;;19.90;26.90;;;;;;5073405;28;20205;-67
2023/06/19 03:11:17;;;;;;;3.20;1.30;;;20.10;26.20;;;;;;5073576;28;20178;-68
2023/06/19 03:13:52;;;;;;;6.23;1.67;;;19.90;26.70;;;;;;5072789;28;20215;-69
2023/06/19 03:16:21;;;;;;;2.80;0.93;;;19.80;25.50;;;;;;5073326;28;20175;-68
2023/06/19 03:18:48;;;;;;;1.53;0.90;;;20.20;25.60;;;;;;5073012;28;20619;-67
2023/06/19 03:21:16;;;;;;;5.07;1.00;;;20.40;24.80;;;;;;5072905;28;20179;-67
2023/06/19 03:23:44;;;;;;;2.13;0.80;;;20.20;23.50;;;;;;5073254;28;20180;-66
2023/06/19 03:26:12;;;;;;;4.03;1.17;;;20.40;23.70;;;;;;5073031;28;20714;-67
2023/06/19 03:28:39;;;;;;;4.50;1.23;;;20.40;25.50;;;;;;5072449;28;20731;-67
2023/06/19 03:31:07;;;;;;;2.30;0.80;;;20.60;24.10;;;;;;5072980;28;20183;-67
2023/06/19 03:33:34;;;;;;;2.87;1.00;;;20.50;22.90;;;;;;5072772;28;20676;-66
2023/06/19 03:36:01;;;;;;;6.00;1.27;;;20.50;24.50;;;;;;5072291;28;20176;-67
2023/06/19 03:38:29;;;;;;;2.80;1.13;;;20.50;23.30;;;;;;5072712;28;20200;-68
2023/06/19 03:40:56;;;;;;;1.33;0.60;;;20.60;23.30;;;;;;5072414;28;20184;-67
2023/06/19 03:43:23;;;;;;;1.90;0.80;;;20.70;22.90;;;;;;5072091;28;20611;-68
2023/06/19 03:45:51;;;;;;;4.43;1.20;;;20.40;22.80;;;;;;5072224;28;20659;-67
2023/06/19 03:48:18;;;;;;;1.70;0.80;;;20.40;22.20;;;;;;5073085;28;20175;-68
2023/06/19 03:50:46;;;;;;;1.70;0.70;;;20.50;21.60;;;;;;5073936;28;20558;-68
2023/06/19 03:53:13;;;;;;;1.87;0.77;;;20.60;18.90;;;;;;5072445;28;20176;-69
2023/06/19 03:55:41;;;;;;;3.20;0.97;;;20.40;19.40;;;;;;5073109;28;20183;-68
2023/06/19 03:58:08;;;;;;;2.03;0.80;;;20.40;19.60;;;;;;5079249;28;20669;-67
2023/06/19 04:00:35;;;;;;;5.30;1.20;;;20.60;19.10;;;;;;5072389;28;20180;-68
2023/06/19 04:03:03;;;;;;;5.37;0.80;;;20.80;19.30;;;;;;5072304;28;20182;-67
2023/06/19 04:05:30;;;;;;;6.80;0.87;;;20.80;17.60;;;;;;5071813;28;20176;-68
2023/06/19 04:07:57;;;;;;;4.57;0.73;;;20.60;14.00;;;;;;5072354;28;20188;-67
2023/06/19 04:10:25;;;;;;;3.50;0.83;;;20.20;13.40;;;;;;5072205;28;20216;-67
2023/06/19 04:12:55;;;;;;;3.60;1.20;;;20.20;12.90;;;;;;5071828;28;20221;-66
2023/06/19 04:15:35;;;;;;;2.13;1.07;;;20.00;12.30;;;;;;5088992;27;20532;-67
2023/06/19 04:18:03;;;;;;;1.00;0.73;;;19.90;12.90;;;;;;5088801;28;20656;-67
2023/06/19 04:20:31;;;;;;;4.27;0.80;;;20.00;13.50;;;;;;5088386;28;20698;-67
2023/06/19 04:22:58;;;;;;;4.60;0.80;;;19.60;13.40;;;;;;5088943;28;20197;-67
2023/06/19 04:25:27;;;;;;;7.27;0.87;;;19.50;13.20;;;;;;5088778;28;20182;-67
2023/06/19 04:27:54;;;;;;;2.70;0.77;;;19.20;13.00;;;;;;5088284;28;20207;-67
2023/06/19 04:30:22;;;;;;;4.23;0.97;;;19.20;13.20;;;;;;5088705;28;20283;-67
2023/06/19 04:32:50;;;;;;;3.93;1.00;;;19.50;14.70;;;;;;5088678;28;20171;-68
2023/06/19 04:35:18;;;;;;;7.03;0.80;;;19.60;14.60;;;;;;5088027;28;20214;-68
2023/06/19 04:37:48;;;;;;;1.37;0.70;;;20.00;15.30;;;;;;5088680;28;20178;-68
2023/06/19 04:40:16;;;;;;;3.07;0.97;;;19.60;14.60;;;;;;5088456;28;20207;-68
2023/06/19 04:42:44;;;;;;;10.73;1.03;;;19.40;14.70;;;;;;5088077;28;20263;-67
2023/06/19 04:45:12;;;;;;;4.40;0.83;;;19.00;14.60;;;;;;5088297;28;20183;-68
2023/06/19 04:47:39;;;;;;;6.50;1.20;;;18.70;14.90;;;;;;5088477;28;20189;-68
2023/06/19 04:50:09;;;;;;;9.53;1.20;;;18.70;15.90;;;;;;5087971;28;20630;-67
2023/06/19 04:52:37;;;;;;;3.90;0.80;;;18.40;15.90;;;;;;5088476;28;20641;-68
2023/06/19 04:55:09;;;;;;;6.57;0.80;;;18.50;16.30;;;;;;5088289;28;20219;-68
2023/06/19 04:57:38;;;;;;;10.27;1.20;;;18.40;16.90;;;;;;5087720;28;20194;-69
2023/06/19 05:00:07;;;;;;;6.47;1.17;;;18.40;16.00;;;;;;5088194;28;20179;-68
2023/06/19 05:02:35;;;;;;;3.50;1.07;;;18.40;17.20;;;;;;5088239;28;20171;-68
2023/06/19 05:05:03;;;;;;;1.97;0.80;;;18.60;17.80;;;;;;5082886;28;20215;-68
2023/06/19 05:07:31;;;;;;;5.30;1.20;;;18.60;18.00;;;;;;5088087;28;20179;-68
2023/06/19 05:09:59;;;;;;;5.70;1.10;;;18.70;18.30;;;;;;5088051;28;20185;-68
2023/06/19 05:12:27;;;;;;;6.00;0.90;;;18.40;16.60;;;;;;5086146;28;20176;-68
2023/06/19 05:14:55;;;;;;;2.50;0.90;;;18.40;18.20;;;;;;5087603;28;20241;-67
2023/06/19 05:17:23;;;;;;;6.90;1.10;;;18.30;16.90;;;;;;5087842;28;20179;-68
2023/06/19 05:19:50;;;;;;;3.43;1.17;;;18.30;17.10;;;;;;5087366;28;20167;-68
2023/06/19 05:22:27;;;;;;;3.13;1.10;;;18.10;17.60;;;;;;5087471;28;20179;-68
2023/06/19 05:24:54;;;;;;;3.03;1.30;;;17.80;18.40;;;;;;5085115;28;20275;-67
2023/06/19 05:27:22;;;;;;;9.50;1.00;;;17.50;19.20;;;;;;5073643;28;20544;-69
2023/06/19 05:29:50;;;;;;;1.90;0.87;;;17.40;19.70;;;;;;5074376;28;20630;-67
2023/06/19 05:32:18;;;;;;;4.53;1.03;;;17.20;20.10;;;;;;5073518;28;20182;-68
2023/06/19 05:34:45;;;;;;;12.97;1.53;;;17.30;20.40;;;;;;5073520;28;20548;-68
2023/06/19 05:37:13;;;;;;;2.67;1.17;;;17.10;20.40;;;;;;5073631;28;20183;-68
2023/06/19 05:39:41;;;;;;;5.80;1.37;;;16.90;21.10;;;;;;5073920;28;20788;-68
2023/06/19 05:42:08;;;;;;;6.90;1.00;;;16.70;21.30;;;;;;5073311;28;20172;-68
2023/06/19 05:44:36;;;;;;;3.47;0.87;;;16.50;22.40;;;;;;5073954;28;20172;-68
2023/06/19 05:47:04;;;;;;;8.03;0.93;;;16.40;22.90;;;;;;5073660;28;20188;-67
2023/06/19 05:49:32;;;;;;;3.97;1.03;;;16.30;22.60;;;;;;5073371;28;20217;-69
2023/06/19 05:52:00;;;;;;;3.73;1.17;;;16.20;23.70;;;;;;5073645;28;20212;-69
2023/06/19 05:54:27;;;;;;;8.33;1.20;;;16.10;24.40;;;;;;5073739;28;20274;-68
2023/06/19 05:56:55;;;;;;;4.90;1.30;;;15.90;24.70;;;;;;5073110;28;20180;-68
2023/06/19 05:59:23;;;;;;;4.10;0.90;;;15.90;25.80;;;;;;5073519;28;20629;-68
2023/06/19 06:01:52;;;;;;;4.27;0.80;;;15.90;26.70;;;;;;5072034;28;20262;-70
2023/06/19 06:04:21;;;;;;;2.83;0.77;;;15.70;28.20;;;;;;5072777;28;20180;-68
2023/06/19 06:06:49;;;;;;;5.30;1.10;;;15.70;28.50;;;;;;5073154;28;20234;-68
2023/06/19 06:09:17;;;;;;;1.40;0.73;;;15.60;30.10;;;;;;5073142;28;20602;-68
2023/06/19 06:11:45;;;;;;;3.63;1.10;;;15.60;30.60;;;;;;5072835;28;20634;-68
2023/06/19 06:14:12;;;;;;;1.63;0.83;;;15.50;32.60;;;;;;5072538;28;20315;-68
2023/06/19 06:16:40;;;;;;;7.43;1.50;;;15.40;33.20;;;;;;5073526;28;20183;-68
2023/06/19 06:19:08;;;;;;;7.57;1.53;;;15.40;34.90;;;;;;5072780;28;20558;-68
2023/06/19 06:21:36;;;;;;;6.37;1.40;;;15.40;35.50;;;;;;5073109;28;20645;-67
2023/06/19 06:24:04;;;;;;;3.57;1.27;;;15.30;36.60;;;;;;5072948;28;20217;-68
2023/06/19 06:26:32;;;;;;;3.03;1.53;;;15.40;37.20;;;;;;5072809;28;20263;-68
2023/06/19 06:28:59;;;;;;;5.53;1.53;;;15.20;38.50;;;;;;5073034;28;20278;-69
2023/06/19 06:31:27;;;;;;;4.90;1.30;;;15.20;40.60;;;;;;5072341;28;20180;-68
2023/06/19 06:33:55;;;;;;;2.73;1.03;;;15.10;41.60;;;;;;5071798;28;20196;-69
2023/06/19 06:36:24;;;;;;;5.57;1.63;;;15.10;42.00;;;;;;5072279;28;20215;-69
2023/06/19 06:38:52;;;;;;;6.93;1.23;;;15.00;43.50;;;;;;5071768;28;20262;-67
2023/06/19 06:41:20;;;;;;;2.80;1.40;;;15.00;44.40;;;;;;5072094;28;20193;-67
2023/06/19 06:43:48;;;;;;;2.40;1.43;;;15.00;46.30;;;;;;5072011;28;20203;-67
2023/06/19 06:46:16;;;;;;;7.60;1.30;;;14.90;47.90;;;;;;5072281;28;20193;-68
2023/06/19 06:48:43;;;;;;;5.73;1.60;;;14.90;48.90;;;;;;5072167;28;20552;-67
2023/06/19 06:51:11;;;;;;;3.60;1.00;;;14.80;50.80;;;;;;5072717;28;20898;-67
2023/06/19 06:53:39;;;;;;;3.33;1.20;;;14.70;51.50;;;;;;5072511;28;20198;-68
2023/06/19 06:56:06;;;;;;;9.40;1.47;;;14.60;52.80;;;;;;5071920;28;20705;-67
2023/06/19 06:58:34;;;;;;;5.33;1.47;;;14.60;54.80;;;;;;5072551;28;20180;-67
2023/06/19 07:01:02;;;;;;;3.70;1.30;;;14.40;56.00;;;;;;5071978;28;20252;-67
2023/06/19 07:03:31;;;;;;;4.80;1.30;;;14.40;57.70;;;;;;5071448;28;20695;-68
2023/06/19 07:05:59;;;;;;;5.60;1.23;;;14.40;59.10;;;;;;5072053;28;20180;-68
2023/06/19 07:08:27;;;;;;;3.63;1.20;;;14.30;60.60;;;;;;5072090;28;20640;-68
2023/06/19 07:10:54;;;;;;;4.07;1.70;;;14.20;63.10;;;;;;5071419;28;20228;-68
2023/06/19 07:13:22;;;;;;;7.57;1.53;;;14.00;67.10;;;;;;5071629;28;20213;-68
2023/06/19 07:15:50;;;;;;;7.60;1.50;;;13.90;70.40;;;;;;5072027;28;20191;-68
2023/06/19 07:18:18;;;;;;;2.67;1.00;;;13.90;71.30;;;;;;5070972;28;20270;-68
2023/06/19 07:20:45;;;;;;;2.53;1.00;;;14.00;67.90;;;;;;5070011;28;20190;-67
2023/06/19 07:23:14;;;;;;;6.77;1.07;;;14.10;66.90;;;;;;5071579;28;20631;-69
2023/06/19 07:25:42;;;;;;;3.50;1.13;;;14.10;66.00;;;;;;5071274;28;20179;-68
2023/06/19 07:28:10;;;;;;;7.20;1.10;;;14.00;68.60;;;;;;5071603;28;20203;-68
2023/06/19 07:30:37;;;;;;;2.37;1.07;;;13.90;68.10;;;;;;5072005;28;20240;-68
2023/06/19 07:33:05;;;;;;;2.60;1.10;;;13.90;68.20;;;;;;5071342;28;20258;-68
2023/06/19 07:35:33;;;;;;;3.13;1.30;;;13.90;68.50;;;;;;5071833;28;20557;-69
2023/06/19 07:38:01;;;;;;;2.93;1.00;;;13.90;68.60;;;;;;5071695;28;20179;-68
2023/06/19 07:40:29;;;;;;;2.03;0.70;;;13.80;72.00;;;;;;5070054;28;20196;-68
2023/06/19 07:42:57;;;;;;;2.90;1.07;;;13.70;72.20;;;;;;5070195;28;20191;-70
2023/06/19 07:45:24;;;;;;;3.93;1.17;;;13.60;73.00;;;;;;5071647;28;20673;-68
2023/06/19 07:47:56;;;;;;;2.77;1.13;;;13.60;74.00;;;;;;5071199;28;20660;-68
2023/06/19 07:50:24;;;;;;;9.80;2.00;;;13.40;76.20;;;;;;5070145;28;20187;-68
2023/06/19 07:52:51;;;;;;;3.93;1.20;;;13.50;78.80;;;;;;5071669;28;20198;-68
2023/06/19 07:55:19;;;;;;;4.70;1.30;;;13.40;81.60;;;;;;5071072;28;20221;-68
2023/06/19 07:57:47;;;;;;;6.70;1.40;;;13.30;83.00;;;;;;5071520;28;20176;-69
2023/06/19 08:00:15;;;;;;;6.70;1.73;;;13.10;88.00;;;;;;5071569;28;20234;-69
2023/06/19 08:02:43;;;;;;;3.03;1.30;;;13.00;90.70;;;;;;5070958;28;20639;-68
2023/06/19 08:05:11;;;;;;;2.67;1.27;;;12.80;92.00;;;;;;5071085;28;20755;-68
2023/06/19 08:07:39;;;;;;;3.63;1.60;;;12.70;93.40;;;;;;5071315;28;20205;-68
2023/06/19 08:10:07;;;;;;;4.40;1.47;;;12.60;94.00;;;;;;5070288;28;20650;-68
2023/06/19 08:12:35;;;;;;;4.33;1.10;;;12.50;95.80;;;;;;5070751;28;20542;-69
2023/06/19 08:15:03;;;;;;;4.97;1.47;;;12.50;94.40;;;;;;5070473;28;20251;-68
2023/06/19 08:17:31;;;;;;;2.33;1.30;;;12.80;90.90;;;;;;5070501;28;20175;-71
2023/06/19 08:19:58;;;;;;;1.50;1.10;;;12.90;88.90;;;;;;5070529;28;20589;-68
2023/06/19 08:22:26;;;;;;;1.40;0.87;;;12.90;86.20;;;;;;5071220;28;20191;-68
2023/06/19 08:24:54;;;;;;;5.03;1.10;;;13.10;83.90;;;;;;5071100;28;20189;-69
2023/06/19 08:27:22;;;;;;;4.43;0.97;;;13.10;83.00;;;;;;5071480;28;20173;-68
2023/06/19 08:29:49;;;;;;;5.20;1.30;;;13.20;80.70;;;;;;5070799;28;20186;-70
2023/06/19 08:32:17;;;;;;;3.43;1.30;;;13.30;78.80;;;;;;5070061;28;20187;-69
2023/06/19 08:34:45;;;;;;;1.13;1.00;;;13.40;78.00;;;;;;5070601;28;20236;-68
2023/06/19 08:37:13;;;;;;;2.80;1.10;;;13.30;79.10;;;;;;5070763;28;20182;-68
2023/06/19 08:39:41;;;;;;;3.20;1.20;;;13.20;79.30;;;;;;5070736;28;20196;-69
2023/06/19 08:42:09;;;;;;;3.87;1.07;;;13.20;79.30;;;;;;5070440;28;20641;-69
2023/06/19 08:44:37;;;;;;;2.40;1.30;;;13.20;79.50;;;;;;5072004;28;20189;-69
2023/06/19 08:47:06;;;;;;;1.10;0.90;;;13.10;81.50;;;;;;5069339;28;20243;-69
2023/06/19 08:49:37;;;;;;;1.60;1.03;;;13.00;81.70;;;;;;5070330;28;20560;-70
2023/06/19 08:52:06;;;;;;;2.03;0.97;;;13.10;80.90;;;;;;5069568;28;20188;-69
2023/06/19 08:54:33;;;;;;;5.97;1.40;;;13.20;80.70;;;;;;5069762;28;20278;-68
2023/06/19 08:57:04;;;;;;;2.73;1.00;;;13.10;83.30;;;;;;5070441;28;20212;-69
2023/06/19 08:59:33;;;;;;;2.90;0.90;;;13.10;83.10;;;;;;5070416;28;20188;-70
2023/06/19 09:02:00;;;;;;;1.23;0.90;;;13.10;81.90;;;;;;5069759;28;20286;-68
2023/06/19 09:04:30;;;;;;;2.70;0.90;;;13.10;82.70;;;;;;5073808;28;20194;-68
2023/06/19 09:07:00;;;;;;;1.63;1.00;;;13.10;83.60;;;;;;5073758;28;20283;-70
2023/06/19 09:09:29;;;;;;;4.57;1.13;;;13.10;83.40;;;;;;5073186;28;20197;-69
2023/06/19 09:12:05;;;;;;;3.07;1.00;;;13.20;83.30;;;;;;5073598;28;20185;-69
2023/06/19 09:14:40;;;;;;;2.20;1.00;;;13.20;83.80;;;;;;5073668;28;20234;-69
2023/06/19 09:17:13;;;;;;;5.63;1.20;;;13.20;83.40;;;;;;5073000;28;20176;-69
2023/06/19 09:19:52;;;;;;;1.87;1.03;;;13.20;83.80;;;;;;5072983;28;20176;-71
2023/06/19 09:22:22;;;;;;;6.53;1.20;;;13.00;84.70;;;;;;5073796;28;20181;-68
2023/06/19 09:24:50;;;;;;;3.83;1.23;;;13.00;85.00;;;;;;5075003;28;20227;-69
2023/06/19 09:27:20;;;;;;;1.67;1.00;;;13.00;85.00;;;;;;5074977;28;20185;-68
2023/06/19 09:29:50;;;;;;;1.80;1.17;;;13.10;82.70;;;;;;5075060;28;20174;-68
2023/06/19 09:32:20;;;;;;;5.43;1.30;;;13.00;82.70;;;;;;5075354;28;20185;-69
2023/06/19 09:34:51;;;;;;;8.20;1.50;;;13.00;83.60;;;;;;5075323;28;20305;-69
2023/06/19 09:37:31;;;;;;;4.77;1.40;;;12.80;86.00;;;;;;5074751;28;20221;-68
2023/06/19 09:40:10;;;;;;;4.80;1.20;;;12.70;87.80;;;;;;5075264;28;20173;-68
2023/06/19 09:42:43;;;;;;;1.73;1.13;;;12.50;91.50;;;;;;5075252;28;20554;-68
2023/06/19 09:45:15;;;;;;;4.13;1.03;;;12.40;92.20;;;;;;5074873;28;20610;-69
2023/06/19 09:47:48;;;;;;;1.97;1.13;;;12.30;93.70;;;;;;5075207;28;20257;-69
2023/06/19 09:50:16;;;;;;;3.13;1.10;;;12.20;95.40;;;;;;5075034;28;20179;-68
2023/06/19 09:52:45;;;;;;;5.30;1.00;;;12.30;96.10;;;;;;5074680;28;20182;-69
2023/06/19 09:55:15;;;;;;;10.90;1.10;;;12.60;96.70;;;;;;5074596;28;20227;-68
2023/06/19 09:57:44;;;;;;;1.53;1.03;;;12.80;95.80;;;;;;5074934;28;20266;-69
2023/06/19 10:00:15;;;;;;;4.50;1.23;;;13.00;95.40;;;;;;5074610;28;20640;-67
2023/06/19 10:02:45;;;;;;;3.57;1.50;;;13.00;94.30;;;;;;5075030;28;20179;-68
2023/06/19 10:05:14;;;;;;;5.73;1.03;;;13.10;94.10;;;;;;5074447;28;20174;-68
2023/06/19 10:07:49;;;;;;;3.27;0.90;;;13.10;94.60;;;;;;5073458;28;20260;-69
2023/06/19 10:10:27;;;;;;;3.30;1.20;;;13.00;95.60;;;;;;5074339;28;20215;-68
2023/06/19 10:13:16;;;;;;;3.50;1.13;;;13.00;96.60;;;;;;5074468;28;20324;-69
2023/06/19 10:15:46;;;;;;;2.87;1.27;;;12.90;97.70;;;;;;5074435;28;20220;-68
2023/06/19 10:18:18;;;;;;;3.83;1.07;;;13.10;98.30;;;;;;5074597;28;20177;-67
2023/06/19 10:20:47;;;;;;;2.57;1.50;;;13.30;98.00;;;;;;5074684;28;20214;-70
2023/06/19 10:23:20;;;;;;;1.43;1.13;;;13.40;99.50;;;;;;5074256;28;20294;-68
2023/06/19 10:25:55;;;;;;;2.97;0.90;;;13.40;99.90;;;;;;5074289;28;20186;-68
2023/06/19 10:28:24;;;;;;;2.80;1.03;;;13.50;99.90;;;;;;5074725;28;20169;-69
2023/06/19 10:30:57;;;;;;;3.03;0.90;;;13.50;99.90;;;;;;5074572;28;20184;-68
2023/06/19 10:33:31;;;;;;;1.20;0.77;;;13.40;99.90;;;;;;5072995;28;20542;-69
2023/06/19 10:36:14;;;;;;;3.83;1.00;;;13.40;99.90;;;;;;5074099;28;20206;-70
2023/06/19 10:38:46;;;;;;;4.80;0.93;;;13.30;99.90;;;;;;5074187;28;20169;-68
2023/06/19 10:41:25;;;;;;;2.40;1.00;;;13.20;99.90;;;;;;5074395;28;20266;-69
2023/06/19 10:44:05;;;;;;;3.13;1.00;;;13.00;99.90;;;;;;5073634;28;20247;-68
2023/06/19 10:46:38;;;;;;;3.17;0.90;;;12.90;99.90;;;;;;5071331;28;20233;-69
2023/06/19 10:49:07;;;;;;;2.20;1.00;;;12.70;99.90;;;;;;5073353;28;20243;-69
2023/06/19 10:51:40;;;;;;;1.97;0.87;;;12.60;99.90;;;;;;5073880;28;20227;-68
2023/06/19 10:54:09;;;;;;;1.53;0.83;;;12.40;99.90;;;;;;5073435;28;20209;-69
2023/06/19 10:56:38;;;;;;;1.37;0.90;;;12.50;99.90;;;;;;5073575;28;20217;-68
2023/06/19 10:59:14;;;;;;;0.80;0.70;;;12.50;99.90;;;;;;5072846;28;20178;-69
2023/06/19 11:01:45;;;;;;;1.00;0.70;;;12.50;99.90;;;;;;5073620;28;20181;-68
2023/06/19 11:04:15;;;;;;;1.17;0.60;;;12.60;99.90;;;;;;5073125;28;20239;-69
2023/06/19 11:06:45;;;;;;;0.50;0.50;;;12.70;99.90;;;;;;5073474;28;20201;-68
2023/06/19 11:09:13;;;;;;;0.50;0.50;;;12.80;99.90;;;;;;5072140;28;20196;-68
2023/06/19 11:11:44;;;;;;;1.17;0.50;;;12.80;99.90;;;;;;5072430;28;20186;-69
2023/06/19 11:14:13;;;;;;;0.50;0.50;;;12.80;99.90;;;;;;5072973;28;20312;-68
2023/06/19 11:16:42;;;;;;;1.77;0.50;;;12.80;99.90;;;;;;5073078;28;20178;-67
2023/06/19 11:19:30;;;;;;;1.90;0.50;;;12.80;99.90;;;;;;5072858;28;20177;-68
2023/06/19 11:22:00;;;;;;;1.40;0.70;;;12.80;99.90;;;;;;5073002;28;20226;-71
2023/06/19 11:24:30;;;;;;;0.40;0.40;;;12.80;99.90;;;;;;5071990;28;20191;-67
2023/06/19 11:26:59;;;;;;;0.80;0.50;;;12.70;99.90;;;;;;5073064;28;20189;-68
2023/06/19 11:29:29;;;;;;;0.80;0.70;;;12.70;99.90;;;;;;5072759;28;20179;-67
2023/06/19 11:32:13;;;;;;;8.43;1.33;;;12.70;99.90;;;;;;5072652;28;20181;-68
2023/06/19 11:34:41;;;;;;;2.80;1.13;;;12.60;99.90;;;;;;5073001;28;20216;-68
2023/06/19 11:37:16;;;;;;;1.27;0.70;;;12.60;99.90;;;;;;5072874;28;20179;-67
2023/06/19 11:39:47;;;;;;;0.93;0.60;;;12.50;99.90;;;;;;5072740;28;20204;-68
2023/06/19 11:42:17;;;;;;;1.13;0.87;;;12.50;99.90;;;;;;5072372;28;20173;-67
2023/06/19 11:45:13;;;;;;;0.70;0.50;;;12.40;99.90;;;;;;5072764;28;20240;-68
2023/06/19 11:47:43;;;;;;;0.53;0.53;;;12.40;99.90;;;;;;5063567;28;20286;-68
2023/06/19 11:50:11;;;;;;;0.47;0.47;;;12.40;99.90;;;;;;5071079;28;20215;-67
2023/06/19 11:52:39;;;;;;;0.70;0.50;;;12.30;99.90;;;;;;5072553;28;20182;-69
2023/06/19 11:55:07;;;;;;;1.27;0.60;;;12.30;99.90;;;;;;5072936;28;20216;-68
2023/06/19 11:57:35;;;;;;;0.70;0.50;;;12.20;99.90;;;;;;5072562;28;20267;-68
2023/06/19 12:00:10;;;;;;;0.63;0.60;;;12.20;99.90;;;;;;5072739;28;20184;-67
2023/06/19 12:02:38;;;;;;;0.50;0.50;;;12.10;99.90;;;;;;5072862;28;20172;-67
2023/06/19 12:05:06;;;;;;;0.50;0.50;;;12.00;99.90;;;;;;5072473;28;20198;-67
2023/06/19 12:07:34;;;;;;;0.40;0.40;;;11.80;99.90;;;;;;5072238;28;20181;-67
2023/06/19 12:13:36;;;;;;;0.80;0.60;;;11.60;99.90;;;;;;5072003;28;20204;-68
2023/06/19 12:16:04;;;;;;;0.53;0.50;;;11.50;99.90;;;;;;5071651;28;20312;-68
2023/06/19 12:18:32;;;;;;;0.40;0.40;;;11.40;99.90;;;;;;5070689;28;20224;-69
2023/06/19 12:20:59;;;;;;;0.60;0.60;;;11.30;99.90;;;;;;5072420;28;20518;-67
2023/06/19 12:23:27;;;;;;;1.30;1.10;;;11.10;99.90;;;;;;5072271;28;20174;-67
2023/06/19 12:25:55;;;;;;;1.77;1.00;;;11.00;99.90;;;;;;5071809;28;20190;-68
2023/06/19 12:28:23;;;;;;;1.60;1.17;;;10.90;99.90;;;;;;5072317;28;20182;-68
2023/06/19 12:30:51;;;;;;;0.70;0.60;;;10.80;99.90;;;;;;5072370;28;20185;-69
2023/06/19 12:33:23;;;;;;;0.60;0.60;;;10.70;99.90;;;;;;5071935;28;20184;-68
2023/06/19 12:35:51;;;;;;;0.60;0.60;;;10.60;99.90;;;;;;5073446;28;20199;-67
2023/06/19 12:38:18;;;;;;;0.80;0.80;;;10.60;99.90;;;;;;5076457;28;20178;-67
2023/06/19 12:40:46;;;;;;;0.70;0.70;;;10.60;99.90;;;;;;5076174;28;20218;-68
2023/06/19 12:43:14;;;;;;;2.20;0.90;;;10.60;99.90;;;;;;5076150;28;20184;-68
2023/06/19 12:45:42;;;;;;;1.40;1.00;;;10.70;99.90;;;;;;5076245;28;20181;-68
2023/06/19 12:48:11;;;;;;;1.43;0.90;;;10.90;99.90;;;;;;5075975;28;20183;-68
2023/06/19 12:50:39;;;;;;;1.90;1.13;;;10.90;99.90;;;;;;5075571;28;20184;-68
2023/06/19 12:53:07;;;;;;;1.40;0.93;;;10.90;99.90;;;;;;5075845;28;20179;-68
2023/06/19 12:55:35;;;;;;;0.90;0.80;;;10.80;99.90;;;;;;5075889;28;20243;-68
2023/06/19 12:58:03;;;;;;;1.17;0.87;;;10.70;99.90;;;;;;5076183;28;20260;-68
2023/06/19 13:00:31;;;;;;;0.60;0.57;;;10.60;99.90;;;;;;5075603;28;20536;-68
2023/06/19 13:02:59;;;;;;;0.80;0.80;;;10.40;99.90;;;;;;5075845;28;20164;-68
2023/06/19 13:05:26;;;;;;;1.97;0.80;;;10.30;99.90;;;;;;5075583;28;20208;-68